createdAt,value
2019-02-05T00:01:46.904Z,73.73
2019-02-05T00:04:16.285Z,47.43
2019-02-05T00:06:45.610Z,45.57
2019-02-05T00:09:15.015Z,45.83
2019-02-05T00:11:44.497Z,52.03
2019-02-05T00:14:13.904Z,50.03
2019-02-05T00:16:43.559Z,60.87
2019-02-05T00:19:12.939Z,61.50
2019-02-05T00:21:42.443Z,49.33
2019-02-05T00:24:11.882Z,48.97
2019-02-05T00:26:41.361Z,56.53
2019-02-05T00:29:10.819Z,50.87
2019-02-05T00:31:40.217Z,54.60
2019-02-05T00:34:09.603Z,97.93
2019-02-05T00:36:39.007Z,48.43
2019-02-05T00:39:08.733Z,53.17
2019-02-05T00:41:38.194Z,49.77
2019-02-05T00:44:07.605Z,43.10
2019-02-05T00:46:36.992Z,34.73
2019-02-05T00:49:06.463Z,40.20
2019-02-05T00:51:35.979Z,36.27
2019-02-05T00:54:05.397Z,44.60
2019-02-05T00:56:34.777Z,41.00
2019-02-05T00:59:04.476Z,38.33
2019-02-05T01:01:33.977Z,38.77
2019-02-05T01:04:03.482Z,32.83
2019-02-05T01:06:32.873Z,45.90
2019-02-05T01:09:02.560Z,39.23
2019-02-05T01:11:32.010Z,39.97
2019-02-05T01:14:01.811Z,35.90
2019-02-05T01:16:31.203Z,31.30
2019-02-05T01:19:00.580Z,33.53
2019-02-05T01:21:29.966Z,30.87
2019-02-05T01:23:59.420Z,32.70
2019-02-05T01:26:30.049Z,47.30
2019-02-05T01:28:59.915Z,35.90
2019-02-05T01:31:29.373Z,59.53
2019-02-05T01:33:58.774Z,33.90
2019-02-05T01:36:28.265Z,37.60
2019-02-05T01:38:57.650Z,38.40
2019-02-05T01:41:27.142Z,34.17
2019-02-05T01:43:56.604Z,36.97
2019-02-05T01:46:25.934Z,35.97
2019-02-05T01:48:55.240Z,36.20
2019-02-05T01:51:24.579Z,33.50
2019-02-05T01:53:54.024Z,32.60
2019-02-05T01:56:23.412Z,36.67
2019-02-05T01:58:52.726Z,40.47
2019-02-05T02:01:22.109Z,31.70
2019-02-05T02:03:51.519Z,32.90
2019-02-05T02:06:20.983Z,41.17
2019-02-05T02:08:50.388Z,31.93
2019-02-05T02:11:19.756Z,43.73
2019-02-05T02:13:49.164Z,65.87
2019-02-05T02:16:18.639Z,53.20
2019-02-05T02:18:48.024Z,49.97
2019-02-05T02:21:17.540Z,32.53
2019-02-05T02:23:46.920Z,69.23
2019-02-05T02:26:16.260Z,49.13
2019-02-05T02:28:45.579Z,50.50
2019-02-05T02:31:15.004Z,62.63
2019-02-05T02:33:44.552Z,37.80
2019-02-05T02:36:13.961Z,75.23
2019-02-05T02:38:43.359Z,81.47
2019-02-05T02:41:12.809Z,32.83
2019-02-05T02:43:42.278Z,69.00
2019-02-05T02:46:11.761Z,139.93
2019-02-05T02:48:41.129Z,61.17
2019-02-05T02:51:10.449Z,85.10
2019-02-05T02:53:39.966Z,71.40
2019-02-05T02:56:09.338Z,58.70
2019-02-05T02:58:38.826Z,38.93
2019-02-05T03:01:08.283Z,74.03
2019-02-05T03:03:37.657Z,63.20
2019-02-05T03:06:07.125Z,57.17
2019-02-05T03:08:36.593Z,53.47
2019-02-05T03:11:06.145Z,35.20
2019-02-05T03:13:35.994Z,53.17
2019-02-05T03:16:05.404Z,50.87
2019-02-05T03:18:34.872Z,46.03
2019-02-05T03:21:04.259Z,72.43
2019-02-05T03:23:33.829Z,52.17
2019-02-05T03:26:03.286Z,44.30
2019-02-05T03:28:32.775Z,45.77
2019-02-05T03:31:02.534Z,48.57
2019-02-05T03:33:31.914Z,52.10
2019-02-05T03:36:01.362Z,44.47
2019-02-05T03:38:30.668Z,36.80
2019-02-05T03:41:03.388Z,45.93
2019-02-05T03:43:33.062Z,36.30
2019-02-05T03:46:04.402Z,37.00
2019-02-05T03:48:33.787Z,38.90
2019-02-05T03:51:13.861Z,38.23
2019-02-05T03:53:45.477Z,43.83
2019-02-05T03:56:23.534Z,41.80
2019-02-05T03:59:07.832Z,46.87
2019-02-05T04:01:55.219Z,57.50
2019-02-05T04:04:52.664Z,40.23
2019-02-05T04:07:45.353Z,31.97
2019-02-05T04:10:45.607Z,41.80
2019-02-05T04:13:28.980Z,40.70
2019-02-05T04:16:26.314Z,34.50
2019-02-05T04:19:03.398Z,31.10
2019-02-05T04:21:50.447Z,34.50
2019-02-05T04:24:33.834Z,35.53
2019-02-05T04:27:28.146Z,33.73
2019-02-05T04:30:25.542Z,38.20
2019-02-05T04:33:20.063Z,36.13
2019-02-05T04:35:56.638Z,28.93
2019-02-05T04:38:44.665Z,36.43
2019-02-05T04:41:27.237Z,30.37
2019-02-05T04:44:18.791Z,32.10
2019-02-05T04:47:05.586Z,26.00
2019-02-05T04:49:52.585Z,33.47
2019-02-05T04:52:29.909Z,41.53
2019-02-05T04:55:03.104Z,32.53
2019-02-05T04:57:36.793Z,40.40
2019-02-05T05:00:28.139Z,61.73
2019-02-05T05:03:03.665Z,40.37
2019-02-05T05:05:55.134Z,46.40
2019-02-05T05:08:40.281Z,41.17
2019-02-05T05:11:09.652Z,46.40
2019-02-05T05:13:38.947Z,44.67
2019-02-05T05:16:08.324Z,46.93
2019-02-05T05:18:37.799Z,54.50
2019-02-05T05:21:07.176Z,47.57
2019-02-05T05:23:36.561Z,47.90
2019-02-05T05:26:05.929Z,52.33
2019-02-05T05:28:37.025Z,45.43
2019-02-05T05:31:06.416Z,54.10
2019-02-05T05:33:35.886Z,52.07
2019-02-05T05:36:05.322Z,48.60
2019-02-05T05:38:34.786Z,52.00
2019-02-05T05:41:04.274Z,55.50
2019-02-05T05:43:34.051Z,39.40
2019-02-05T05:46:03.497Z,32.40
2019-02-05T05:48:32.984Z,46.10
2019-02-05T05:51:02.437Z,41.70
2019-02-05T05:53:31.809Z,39.00
2019-02-05T05:56:01.268Z,33.63
2019-02-05T05:58:30.639Z,45.33
2019-02-05T06:01:00.039Z,47.00
2019-02-05T06:03:29.420Z,51.47
2019-02-05T06:05:58.796Z,51.40
2019-02-05T06:08:28.242Z,36.70
2019-02-05T06:10:57.616Z,41.60
2019-02-05T06:13:27.159Z,40.30
2019-02-05T06:15:57.159Z,41.40
2019-02-05T06:18:26.471Z,44.20
2019-02-05T06:20:55.867Z,41.73
2019-02-05T06:23:25.339Z,41.47
2019-02-05T06:25:54.746Z,39.67
2019-02-05T06:28:34.402Z,41.73
2019-02-05T06:30:55.286Z,40.25
2019-02-05T06:33:24.661Z,39.63
2019-02-05T06:35:54.120Z,32.43
2019-02-05T06:38:23.636Z,32.07
2019-02-05T06:40:53.017Z,36.00
2019-02-05T06:43:22.400Z,33.27
2019-02-05T06:45:51.787Z,35.07
2019-02-05T06:48:21.183Z,42.57
2019-02-05T06:50:50.705Z,28.63
2019-02-05T06:53:20.098Z,36.97
2019-02-05T06:55:49.551Z,38.63
2019-02-05T06:58:18.962Z,34.67
2019-02-05T07:00:48.437Z,33.57
2019-02-05T07:03:18.411Z,35.33
2019-02-05T07:05:47.815Z,34.33
2019-02-05T07:08:17.225Z,37.57
2019-02-05T07:10:46.756Z,35.23
2019-02-05T07:13:16.191Z,35.83
2019-02-05T07:15:45.613Z,35.40
2019-02-05T07:18:15.217Z,35.10
2019-02-05T07:20:44.609Z,37.87
2019-02-05T07:23:14.098Z,40.23
2019-02-05T07:25:43.572Z,37.33
2019-02-05T07:28:12.955Z,31.07
2019-02-05T07:30:42.404Z,45.53
2019-02-05T07:33:11.863Z,36.93
2019-02-05T07:35:42.855Z,30.13
2019-02-05T07:38:12.278Z,41.77
2019-02-05T07:40:41.734Z,36.27
2019-02-05T07:43:11.188Z,46.27
2019-02-05T07:45:40.641Z,45.90
2019-02-05T07:48:10.101Z,38.17
2019-02-05T07:50:39.549Z,38.73
2019-02-05T07:53:09.223Z,39.73
2019-02-05T07:55:38.611Z,37.93
2019-02-05T07:58:08.038Z,36.13
2019-02-05T08:00:37.535Z,44.83
2019-02-05T08:03:06.945Z,40.07
2019-02-05T08:05:36.405Z,41.07
2019-02-05T08:08:06.021Z,43.67
2019-02-05T08:10:35.475Z,37.50
2019-02-05T08:13:04.938Z,32.23
2019-02-05T08:15:34.407Z,35.53
2019-02-05T08:18:04.347Z,37.90
2019-02-05T08:20:33.824Z,38.57
2019-02-05T08:23:03.303Z,36.50
2019-02-05T08:25:32.702Z,37.03
2019-02-05T08:28:02.394Z,39.27
2019-02-05T08:30:33.194Z,51.27
2019-02-05T08:33:02.804Z,37.23
2019-02-05T08:35:32.368Z,27.53
2019-02-05T08:38:01.817Z,29.27
2019-02-05T08:40:31.284Z,29.07
2019-02-05T08:43:00.770Z,30.50
2019-02-05T08:45:31.228Z,30.70
2019-02-05T08:48:00.683Z,30.23
2019-02-05T08:50:30.337Z,29.37
2019-02-05T08:53:00.022Z,30.23
2019-02-05T08:55:30.899Z,30.53
2019-02-05T08:58:01.626Z,32.37
2019-02-05T09:00:32.149Z,29.63
2019-02-05T09:03:01.618Z,28.50
2019-02-05T09:05:31.078Z,29.63
2019-02-05T09:08:00.560Z,27.23
2019-02-05T09:10:30.893Z,28.73
2019-02-05T09:13:00.334Z,36.70
2019-02-05T09:15:30.132Z,34.78
2019-02-05T09:17:59.721Z,33.50
2019-02-05T09:20:29.192Z,33.80
2019-02-05T09:22:58.582Z,26.67
2019-02-05T09:25:28.073Z,25.27
2019-02-05T09:27:57.539Z,26.17
2019-02-05T09:30:27.848Z,29.80
2019-02-05T09:32:58.179Z,30.27
2019-02-05T09:35:27.573Z,26.57
2019-02-05T09:37:57.786Z,31.17
2019-02-05T09:40:28.274Z,35.23
2019-02-05T09:42:57.716Z,30.87
2019-02-05T09:45:27.735Z,32.03
2019-02-05T09:47:58.621Z,30.43
2019-02-05T09:50:30.826Z,30.10
2019-02-05T09:52:59.262Z,31.43
2019-02-05T09:55:28.759Z,33.43
2019-02-05T09:57:58.155Z,32.43
2019-02-05T10:00:28.749Z,35.90
2019-02-05T10:02:58.517Z,27.17
2019-02-05T10:05:28.140Z,30.80
2019-02-05T10:07:57.637Z,33.83
2019-02-05T10:10:27.094Z,36.90
2019-02-05T10:12:56.567Z,29.57
2019-02-05T10:15:27.273Z,26.40
2019-02-05T10:17:56.749Z,32.80
2019-02-05T10:20:26.208Z,37.00
2019-02-05T10:22:56.619Z,47.40
2019-02-05T10:25:26.077Z,34.40
2019-02-05T10:27:55.592Z,30.63
2019-02-05T10:30:28.916Z,29.70
2019-02-05T10:32:58.423Z,30.00
2019-02-05T10:35:27.995Z,26.60
2019-02-05T10:37:57.548Z,28.40
2019-02-05T10:40:27.043Z,30.07
2019-02-05T10:42:56.522Z,24.63
2019-02-05T10:45:26.098Z,29.03
2019-02-05T10:47:55.602Z,31.00
2019-02-05T10:50:25.187Z,27.97
2019-02-05T10:52:54.661Z,27.73
2019-02-05T10:55:24.050Z,30.10
2019-02-05T10:57:53.532Z,30.83
2019-02-05T11:00:26.367Z,41.43
2019-02-05T11:02:57.796Z,23.63
2019-02-05T11:05:28.121Z,29.70
2019-02-05T11:07:57.504Z,29.93
2019-02-05T11:10:26.902Z,25.03
2019-02-05T11:12:56.968Z,31.63
2019-02-05T11:15:32.009Z,30.13
2019-02-05T11:18:02.367Z,27.23
2019-02-05T11:20:32.624Z,27.80
2019-02-05T11:23:02.877Z,28.07
2019-02-05T11:25:33.036Z,30.47
2019-02-05T11:28:03.205Z,29.80
2019-02-05T11:30:41.670Z,26.97
2019-02-05T11:33:12.276Z,29.53
2019-02-05T11:35:42.466Z,34.50
2019-02-05T11:38:13.192Z,27.20
2019-02-05T11:40:43.282Z,24.60
2019-02-05T11:43:12.760Z,36.20
2019-02-05T11:45:42.235Z,33.20
2019-02-05T11:48:13.261Z,33.93
2019-02-05T11:50:42.721Z,33.63
2019-02-05T11:53:18.075Z,34.10
2019-02-05T11:55:47.649Z,26.73
2019-02-05T11:58:17.059Z,29.60
2019-02-05T12:00:51.443Z,33.13
2019-02-05T12:03:21.867Z,31.73
2019-02-05T12:05:52.033Z,33.67
2019-02-05T12:08:22.125Z,30.07
2019-02-05T12:10:52.161Z,36.00
2019-02-05T12:13:22.250Z,38.57
2019-02-05T12:15:52.416Z,34.33
2019-02-05T12:18:22.786Z,33.50
2019-02-05T12:20:52.956Z,32.37
2019-02-05T12:23:23.002Z,34.57
2019-02-05T12:25:53.063Z,32.70
2019-02-05T12:28:23.131Z,31.27
2019-02-05T12:30:53.282Z,31.77
2019-02-05T12:33:23.426Z,35.17
2019-02-05T12:35:53.588Z,28.03
2019-02-05T12:38:23.584Z,33.37
2019-02-05T12:40:53.752Z,36.03
2019-02-05T12:43:23.941Z,39.33
2019-02-05T12:45:54.110Z,34.87
2019-02-05T12:48:24.177Z,33.90
2019-02-05T12:50:54.345Z,31.17
2019-02-05T12:53:24.356Z,33.47
2019-02-05T12:55:54.508Z,38.33
2019-02-05T12:58:24.561Z,35.27
2019-02-05T13:00:59.393Z,33.23
2019-02-05T13:03:26.848Z,31.43
2019-02-05T13:05:56.952Z,30.90
2019-02-05T13:08:27.131Z,36.43
2019-02-05T13:10:57.217Z,29.30
2019-02-05T13:13:27.307Z,33.93
2019-02-05T13:15:57.390Z,31.70
2019-02-05T13:18:27.416Z,40.03
2019-02-05T13:20:57.446Z,31.87
2019-02-05T13:23:27.584Z,34.67
2019-02-05T13:25:57.852Z,34.23
2019-02-05T13:28:28.013Z,34.03
2019-02-05T13:31:07.740Z,41.17
2019-02-05T13:33:31.577Z,36.17
2019-02-05T13:36:01.720Z,32.73
2019-02-05T13:38:31.893Z,35.53
2019-02-05T13:41:01.928Z,31.30
2019-02-05T13:43:32.069Z,35.67
2019-02-05T13:46:02.170Z,37.10
2019-02-05T13:48:32.409Z,33.33
2019-02-05T13:51:02.504Z,42.73
2019-02-05T13:53:32.662Z,33.60
2019-02-05T13:56:05.260Z,32.23
2019-02-05T13:58:34.578Z,36.40
2019-02-05T14:01:05.506Z,37.33
2019-02-05T14:03:35.582Z,40.23
2019-02-05T14:06:05.772Z,36.53
2019-02-05T14:08:35.862Z,39.27
2019-02-05T14:11:06.024Z,39.37
2019-02-05T14:13:36.172Z,35.73
2019-02-05T14:16:06.540Z,41.80
2019-02-05T14:18:36.643Z,42.20
2019-02-05T14:21:06.772Z,36.30
2019-02-05T14:23:36.929Z,44.30
2019-02-05T14:26:07.035Z,40.57
2019-02-05T14:28:37.253Z,38.17
2019-02-05T14:31:07.481Z,36.83
2019-02-05T14:33:37.673Z,37.70
2019-02-05T14:36:07.947Z,38.77
2019-02-05T14:38:38.031Z,35.20
2019-02-05T14:41:08.541Z,42.03
2019-02-05T14:43:38.739Z,40.00
2019-02-05T14:46:08.843Z,37.23
2019-02-05T14:48:39.068Z,36.90
2019-02-05T14:51:09.345Z,33.33
2019-02-05T14:53:39.470Z,37.63
2019-02-05T14:56:09.599Z,38.17
2019-02-05T14:58:40.773Z,39.03
2019-02-05T15:01:10.957Z,36.37
2019-02-05T15:03:41.181Z,41.90
2019-02-05T15:06:11.395Z,30.47
2019-02-05T15:08:41.998Z,32.03
2019-02-05T15:11:13.390Z,35.27
2019-02-05T15:13:43.582Z,40.53
2019-02-05T15:16:13.695Z,36.10
2019-02-05T15:18:45.122Z,37.90
2019-02-05T15:21:15.690Z,43.00
2019-02-05T15:23:45.912Z,36.53
2019-02-05T15:26:16.144Z,39.43
2019-02-05T15:28:46.346Z,39.67
2019-02-05T15:31:16.959Z,45.17
2019-02-05T15:33:52.936Z,40.83
2019-02-05T15:36:31.713Z,37.80
2019-02-05T15:39:01.997Z,42.13
2019-02-05T15:41:33.142Z,34.03
2019-02-05T15:44:03.376Z,37.63
2019-02-05T15:46:34.176Z,32.87
2019-02-05T15:49:04.303Z,34.07
2019-02-05T15:51:34.545Z,34.93
2019-02-05T15:54:04.856Z,32.57
2019-02-05T15:56:35.070Z,32.47
2019-02-05T15:59:05.489Z,36.80
2019-02-05T16:01:35.727Z,105.27
2019-02-05T16:04:05.944Z,84.50
2019-02-05T16:06:36.163Z,57.30
2019-02-05T16:09:08.866Z,48.30
2019-02-05T16:11:39.087Z,48.03
2019-02-05T16:14:09.574Z,56.70
2019-02-05T16:16:39.820Z,124.37
2019-02-05T16:19:10.066Z,43.80
2019-02-05T16:21:40.274Z,41.83
2019-02-05T16:24:10.781Z,37.50
2019-02-05T16:26:41.053Z,47.60
2019-02-05T16:29:11.280Z,38.17
2019-02-05T16:31:41.524Z,45.30
2019-02-05T16:34:11.792Z,46.57
2019-02-05T16:36:44.477Z,45.00
2019-02-05T16:39:16.986Z,42.27
2019-02-05T16:41:47.302Z,52.90
2019-02-05T16:44:17.573Z,43.57
2019-02-05T16:46:47.848Z,55.03
2019-02-05T16:49:18.099Z,51.87
2019-02-05T16:51:48.389Z,45.63
2019-02-05T16:54:18.633Z,46.87
2019-02-05T16:56:48.968Z,47.53
2019-02-05T16:59:19.205Z,51.87
2019-02-05T17:01:49.471Z,35.70
2019-02-05T17:04:20.606Z,58.40
2019-02-05T17:06:50.893Z,46.93
2019-02-05T17:09:21.440Z,55.07
2019-02-05T17:11:51.689Z,49.27
2019-02-05T17:14:21.930Z,45.90
2019-02-05T17:16:52.194Z,59.10
2019-02-05T17:19:22.478Z,52.53
2019-02-05T17:21:52.726Z,46.43
2019-02-05T17:24:23.074Z,52.67
2019-02-05T17:26:53.312Z,54.63
2019-02-05T17:29:23.570Z,60.33
2019-02-05T17:31:53.814Z,57.87
2019-02-05T17:34:24.112Z,54.93
2019-02-05T17:36:54.804Z,55.20
2019-02-05T17:39:25.055Z,54.70
2019-02-05T17:41:55.332Z,50.90
2019-02-05T17:44:25.593Z,59.43
2019-02-05T17:46:58.090Z,53.80
2019-02-05T17:49:28.052Z,68.77
2019-02-05T17:51:58.368Z,65.30
2019-02-05T17:54:28.621Z,58.03
2019-02-05T17:56:58.908Z,48.87
2019-02-05T17:59:29.455Z,67.80
2019-02-05T18:01:59.780Z,66.83
2019-02-05T18:04:30.411Z,61.33
2019-02-05T18:07:03.606Z,62.67
2019-02-05T18:09:34.063Z,50.53
2019-02-05T18:12:07.098Z,60.37
2019-02-05T18:14:37.789Z,61.33
2019-02-05T18:17:08.460Z,116.37
2019-02-05T18:19:38.799Z,72.57
2019-02-05T18:22:11.018Z,145.17
2019-02-05T18:24:43.199Z,89.43
2019-02-05T18:27:13.590Z,82.83
2019-02-05T18:29:45.150Z,70.33
2019-02-05T18:32:17.236Z,67.83
2019-02-05T18:34:48.001Z,66.50
2019-02-05T18:37:20.856Z,71.27
2019-02-05T18:39:51.168Z,117.40
2019-02-05T18:42:21.798Z,51.10
2019-02-05T18:44:53.250Z,55.70
2019-02-05T18:47:23.966Z,55.63
2019-02-05T18:49:54.957Z,63.57
2019-02-05T18:52:25.461Z,59.83
2019-02-05T18:54:57.943Z,52.87
2019-02-05T18:57:30.898Z,58.03
2019-02-05T19:00:01.626Z,59.53
2019-02-05T19:02:32.167Z,66.03
2019-02-05T19:05:04.536Z,63.50
2019-02-05T19:07:37.365Z,53.90
2019-02-05T19:10:09.306Z,57.90
2019-02-05T19:12:41.938Z,83.30
2019-02-05T19:15:17.946Z,83.20
2019-02-05T19:17:49.708Z,75.23
2019-02-05T19:20:25.425Z,74.90
2019-02-05T19:22:56.585Z,99.53
2019-02-05T19:25:46.883Z,83.63
2019-02-05T19:28:37.680Z,94.43
2019-02-05T19:31:26.789Z,157.73
2019-02-05T19:33:57.788Z,111.67
2019-02-05T19:36:29.288Z,87.43
2019-02-05T19:38:59.951Z,104.43
2019-02-05T19:41:30.650Z,72.70
2019-02-05T19:44:01.665Z,96.60
2019-02-05T19:46:48.566Z,86.27
2019-02-05T19:49:24.603Z,90.77
2019-02-05T19:51:55.672Z,91.93
2019-02-05T19:54:27.027Z,67.40
2019-02-05T19:57:00.082Z,85.13
2019-02-05T19:59:31.700Z,110.80
2019-02-05T20:02:03.422Z,102.40
2019-02-05T20:04:36.716Z,94.10
2019-02-05T20:07:09.933Z,78.57
2019-02-05T20:09:40.845Z,97.27
2019-02-05T20:12:11.398Z,85.43
2019-02-05T20:14:44.983Z,129.50
2019-02-05T20:17:16.226Z,176.33
2019-02-05T20:19:47.365Z,90.63
2019-02-05T20:22:19.216Z,95.60
2019-02-05T20:24:50.588Z,253.47
2019-02-05T20:27:22.575Z,105.47
2019-02-05T20:29:55.247Z,91.30
2019-02-05T20:32:31.140Z,106.40
2019-02-05T20:35:02.070Z,117.83
2019-02-05T20:37:32.443Z,114.30
2019-02-05T20:40:07.182Z,79.30
2019-02-05T20:42:37.580Z,108.90
2019-02-05T20:45:10.498Z,145.67
2019-02-05T20:47:41.173Z,135.50
2019-02-05T20:50:16.505Z,79.13
2019-02-05T20:52:48.354Z,97.43
2019-02-05T20:55:19.195Z,130.40
2019-02-05T20:57:52.084Z,111.33
2019-02-05T21:00:22.711Z,95.47
2019-02-05T21:02:53.025Z,71.03
2019-02-05T21:05:24.131Z,87.77
2019-02-05T21:07:57.002Z,92.17
2019-02-05T21:10:27.289Z,131.40
2019-02-05T21:12:58.185Z,93.53
2019-02-05T21:15:28.654Z,94.90
2019-02-05T21:17:58.917Z,70.67
2019-02-05T21:20:31.951Z,155.33
2019-02-05T21:23:04.191Z,134.80
2019-02-05T21:25:34.466Z,186.23
2019-02-05T21:28:05.394Z,99.67
2019-02-05T21:30:36.160Z,93.50
2019-02-05T21:33:06.455Z,139.43
2019-02-05T21:35:37.957Z,130.60
2019-02-05T21:38:08.255Z,106.43
2019-02-05T21:40:38.839Z,85.83
2019-02-05T21:43:10.939Z,119.20
2019-02-05T21:45:41.194Z,66.83
2019-02-05T21:48:11.930Z,113.23
2019-02-05T21:50:42.470Z,119.63
2019-02-05T21:53:12.811Z,114.17
2019-02-05T21:55:43.016Z,111.57
2019-02-05T21:58:14.376Z,112.30
2019-02-05T22:00:44.670Z,110.77
2019-02-05T22:03:15.147Z,122.90
2019-02-05T22:05:45.702Z,91.60
2019-02-05T22:08:15.915Z,162.83
2019-02-05T22:10:46.199Z,81.30
2019-02-05T22:13:16.414Z,58.07
2019-02-05T22:15:46.620Z,63.63
2019-02-05T22:18:16.835Z,59.67
2019-02-05T22:20:47.066Z,57.93
2019-02-05T22:23:17.625Z,149.83
2019-02-05T22:25:48.080Z,82.90
2019-02-05T22:28:20.559Z,78.13
2019-02-05T22:30:50.114Z,56.57
2019-02-05T22:33:20.336Z,85.87
2019-02-05T22:35:50.528Z,93.90
2019-02-05T22:38:20.718Z,69.27
2019-02-05T22:40:50.913Z,74.93
2019-02-05T22:43:22.282Z,97.87
2019-02-05T22:45:52.476Z,80.83
2019-02-05T22:48:22.644Z,100.50
2019-02-05T22:50:52.800Z,89.30
2019-02-05T22:53:23.012Z,66.73
2019-02-05T22:55:53.510Z,67.53
2019-02-05T22:58:23.978Z,67.17
2019-02-05T23:01:20.338Z,72.37
2019-02-05T23:03:58.688Z,117.80
2019-02-05T23:06:58.078Z,145.87
2019-02-05T23:10:07.938Z,53.03
2019-02-05T23:12:48.374Z,76.70
2019-02-05T23:15:23.272Z,66.73
2019-02-05T23:17:53.442Z,83.93
2019-02-05T23:20:24.117Z,95.70
2019-02-05T23:22:57.108Z,95.23
2019-02-05T23:25:27.568Z,59.70
2019-02-05T23:27:57.766Z,46.70
2019-02-05T23:30:29.237Z,58.77
2019-02-05T23:32:59.705Z,59.03
2019-02-05T23:35:32.602Z,75.03
2019-02-05T23:38:01.950Z,58.87
2019-02-05T23:40:32.125Z,94.07
2019-02-05T23:43:02.239Z,69.80
2019-02-05T23:45:32.363Z,55.33
2019-02-05T23:48:02.725Z,54.40
2019-02-05T23:50:33.836Z,82.33
2019-02-05T23:53:04.009Z,93.13
2019-02-05T23:55:34.175Z,59.40
2019-02-05T23:58:04.728Z,62.20
